createdAt,value
2022-12-18T00:00:07.121Z,49.20
2022-12-18T00:02:41.933Z,50.10
2022-12-18T00:05:11.372Z,51.10
2022-12-18T00:07:39.789Z,50.80
2022-12-18T00:10:08.849Z,50.50
2022-12-18T00:12:36.782Z,51.50
2022-12-18T00:15:05.317Z,51.80
2022-12-18T00:17:33.237Z,52.70
2022-12-18T00:20:01.180Z,52.00
2022-12-18T00:22:30.463Z,51.20
2022-12-18T00:24:58.399Z,50.60
2022-12-18T00:27:26.545Z,49.80
2022-12-18T00:29:54.487Z,49.30
2022-12-18T00:32:22.440Z,49.30
2022-12-18T00:34:50.358Z,48.70
2022-12-18T00:37:20.255Z,47.30
2022-12-18T00:39:53.805Z,46.40
2022-12-18T00:42:39.378Z,45.70
2022-12-18T00:45:12.551Z,45.10
2022-12-18T00:47:41.705Z,44.80
2022-12-18T00:50:11.023Z,44.50
2022-12-18T00:52:38.959Z,44.80
2022-12-18T00:55:11.594Z,45.50
2022-12-18T00:57:39.552Z,46.20
2022-12-18T01:00:11.062Z,46.40
2022-12-18T01:02:39.256Z,46.10
2022-12-18T01:05:10.152Z,45.30
2022-12-18T01:07:38.159Z,44.70
2022-12-18T01:10:11.793Z,44.60
2022-12-18T01:12:40.172Z,44.70
2022-12-18T01:15:10.008Z,45.30
2022-12-18T01:17:40.818Z,45.10
2022-12-18T01:20:10.691Z,45.30
2022-12-18T01:22:40.368Z,46.50
2022-12-18T01:25:12.224Z,46.70
2022-12-18T01:27:40.374Z,45.50
2022-12-18T01:30:11.835Z,45.70
2022-12-18T01:32:40.046Z,44.50
2022-12-18T01:35:09.171Z,44.60
2022-12-18T01:37:37.108Z,44.80
2022-12-18T01:40:07.970Z,44.50
2022-12-18T01:42:37.514Z,43.40
2022-12-18T01:45:24.077Z,43.50
2022-12-18T01:47:55.308Z,44.10
2022-12-18T01:50:25.500Z,44.20
2022-12-18T01:52:58.396Z,43.10
2022-12-18T01:55:29.982Z,43.50
2022-12-18T01:58:01.331Z,43.60
2022-12-18T02:00:30.483Z,42.90
2022-12-18T02:03:00.275Z,43.70
2022-12-18T02:05:40.042Z,43.20
2022-12-18T02:08:12.761Z,43.90
2022-12-18T02:10:50.145Z,43.20
2022-12-18T02:13:30.614Z,43.70
2022-12-18T02:16:04.151Z,43.30
2022-12-18T02:18:37.537Z,43.40
2022-12-18T02:21:13.192Z,43.70
2022-12-18T02:23:51.773Z,43.90
2022-12-18T02:26:26.138Z,43.50
2022-12-18T02:28:57.119Z,44.00
2022-12-18T02:31:32.955Z,45.00
2022-12-18T02:34:04.156Z,44.60
2022-12-18T02:36:40.138Z,43.70
2022-12-18T02:39:11.052Z,45.20
2022-12-18T02:41:45.375Z,46.20
2022-12-18T02:44:17.108Z,45.70
2022-12-18T02:46:47.374Z,45.70
2022-12-18T02:49:29.106Z,45.00
2022-12-18T02:52:08.170Z,44.20
2022-12-18T02:54:47.339Z,44.60
2022-12-18T02:57:27.058Z,44.80
2022-12-18T03:00:00.494Z,44.10
2022-12-18T03:02:36.709Z,44.00
2022-12-18T03:05:12.320Z,43.50
2022-12-18T03:07:46.088Z,43.00
2022-12-18T03:10:20.879Z,44.30
2022-12-18T03:12:54.895Z,45.10
2022-12-18T03:15:26.972Z,45.70
2022-12-18T03:18:07.083Z,46.20
2022-12-18T03:20:37.821Z,46.80
2022-12-18T03:23:11.422Z,47.40
2022-12-18T03:25:43.267Z,47.30
2022-12-18T03:28:18.616Z,47.40
2022-12-18T03:30:49.115Z,47.40
2022-12-18T03:33:21.313Z,47.10
2022-12-18T03:35:52.277Z,46.70
2022-12-18T03:38:20.665Z,46.50
2022-12-18T03:41:01.019Z,45.70
2022-12-18T03:43:41.942Z,46.10
2022-12-18T03:46:18.774Z,46.00
2022-12-18T03:48:51.775Z,45.30
2022-12-18T03:51:30.213Z,45.00
2022-12-18T03:54:02.156Z,44.60
2022-12-18T03:56:42.154Z,45.40
2022-12-18T03:59:16.779Z,45.10
2022-12-18T04:01:48.561Z,44.80
2022-12-18T04:04:20.037Z,45.20
2022-12-18T04:06:49.941Z,45.40
2022-12-18T04:09:20.902Z,45.50
2022-12-18T04:11:49.932Z,45.60
2022-12-18T04:14:19.755Z,43.90
2022-12-18T04:16:53.468Z,43.30
2022-12-18T04:19:30.844Z,43.40
2022-12-18T04:21:59.735Z,43.20
2022-12-18T04:24:28.794Z,43.60
2022-12-18T04:27:08.131Z,43.20
2022-12-18T04:29:43.895Z,43.20
2022-12-18T04:32:11.923Z,43.20
2022-12-18T04:34:41.400Z,43.40
2022-12-18T04:37:09.345Z,43.00
2022-12-18T04:39:37.711Z,43.40
2022-12-18T04:42:11.368Z,43.30
2022-12-18T04:44:39.350Z,44.00
2022-12-18T04:47:08.600Z,43.50
2022-12-18T04:49:36.577Z,43.90
2022-12-18T04:52:04.567Z,43.50
2022-12-18T04:54:32.483Z,43.90
2022-12-18T04:57:00.433Z,44.40
2022-12-18T04:59:28.415Z,44.40
2022-12-18T05:01:56.470Z,44.50
2022-12-18T05:04:25.829Z,44.50
2022-12-18T05:06:53.799Z,44.80
2022-12-18T05:09:21.845Z,45.80
2022-12-18T05:11:49.754Z,45.40
2022-12-18T05:14:17.676Z,45.00
2022-12-18T05:16:45.649Z,44.70
2022-12-18T05:19:13.784Z,44.40
2022-12-18T05:21:43.591Z,45.20
2022-12-18T05:24:11.537Z,45.10
2022-12-18T05:26:39.486Z,46.50
2022-12-18T05:29:07.439Z,45.90
2022-12-18T05:31:39.672Z,45.00
2022-12-18T05:34:09.172Z,44.20
2022-12-18T05:36:38.757Z,44.90
2022-12-18T05:39:08.145Z,44.20
2022-12-18T05:41:36.146Z,44.90
2022-12-18T05:44:07.229Z,44.70
2022-12-18T05:46:35.265Z,45.90
2022-12-18T05:49:03.682Z,46.30
2022-12-18T05:51:32.396Z,46.40
2022-12-18T05:54:00.295Z,45.90
2022-12-18T05:56:32.338Z,46.60
2022-12-18T05:59:00.344Z,46.70
2022-12-18T06:01:29.216Z,46.40
2022-12-18T06:03:57.510Z,46.40
2022-12-18T06:06:27.323Z,46.50
2022-12-18T06:08:56.200Z,45.80
2022-12-18T06:11:27.495Z,45.60
2022-12-18T06:13:59.579Z,45.90
2022-12-18T06:16:29.736Z,45.30
2022-12-18T06:18:58.569Z,44.90
2022-12-18T06:21:29.618Z,44.60
2022-12-18T06:23:57.706Z,43.50
2022-12-18T06:26:28.604Z,43.40
2022-12-18T06:28:58.112Z,43.10
2022-12-18T06:31:27.319Z,42.90
2022-12-18T06:33:55.447Z,42.20
2022-12-18T06:36:23.437Z,42.60
2022-12-18T06:38:51.483Z,42.40
2022-12-18T06:41:24.358Z,42.20
2022-12-18T06:43:55.599Z,41.60
2022-12-18T06:46:27.826Z,41.40
2022-12-18T06:48:55.780Z,41.70
2022-12-18T06:51:24.898Z,41.30
2022-12-18T06:53:53.020Z,41.40
2022-12-18T06:56:20.946Z,41.70
2022-12-18T06:58:48.865Z,41.90
2022-12-18T07:01:17.081Z,42.80
2022-12-18T07:03:46.483Z,43.40
2022-12-18T07:06:18.368Z,44.10
2022-12-18T07:08:46.884Z,45.10
2022-12-18T07:11:15.353Z,45.90
2022-12-18T07:13:43.596Z,46.40
2022-12-18T07:16:20.937Z,46.70
2022-12-18T07:18:51.826Z,46.60
2022-12-18T07:21:21.426Z,46.10
2022-12-18T07:23:49.710Z,45.60
2022-12-18T07:26:20.259Z,45.10
2022-12-18T07:28:48.759Z,45.00
2022-12-18T07:31:18.669Z,44.70
2022-12-18T07:33:47.736Z,44.10
2022-12-18T07:36:17.170Z,43.70
2022-12-18T07:38:45.380Z,43.30
2022-12-18T07:41:15.383Z,43.50
2022-12-18T07:43:44.295Z,43.80
2022-12-18T07:46:15.597Z,44.20
2022-12-18T07:48:44.903Z,44.10
2022-12-18T07:51:19.260Z,44.50
2022-12-18T07:53:49.268Z,45.20
2022-12-18T07:56:30.029Z,45.70
2022-12-18T07:58:59.826Z,46.00
2022-12-18T08:01:28.346Z,45.50
2022-12-18T08:03:56.604Z,45.40
2022-12-18T08:06:26.657Z,45.30
2022-12-18T08:08:55.048Z,44.80
2022-12-18T08:11:23.665Z,45.00
2022-12-18T08:13:51.734Z,44.80
2022-12-18T08:16:19.957Z,44.50
2022-12-18T08:18:49.662Z,43.80
2022-12-18T08:21:21.801Z,43.60
2022-12-18T08:23:52.797Z,42.70
2022-12-18T08:26:21.989Z,42.10
2022-12-18T08:28:50.480Z,40.90
2022-12-18T08:31:19.302Z,41.10
2022-12-18T08:33:49.976Z,41.20
2022-12-18T08:36:18.314Z,41.10
2022-12-18T08:38:47.519Z,40.90
2022-12-18T08:41:18.460Z,40.50
2022-12-18T08:44:04.035Z,40.10
2022-12-18T08:46:36.443Z,39.30
2022-12-18T08:49:05.167Z,39.00
2022-12-18T08:51:33.275Z,38.70
2022-12-18T08:54:01.277Z,39.00
2022-12-18T08:56:31.810Z,39.60
2022-12-18T08:59:00.237Z,39.90
2022-12-18T09:01:28.399Z,40.70
2022-12-18T09:03:56.441Z,41.20
2022-12-18T09:06:25.410Z,41.20
2022-12-18T09:08:53.430Z,41.30
2022-12-18T09:11:23.705Z,41.40
2022-12-18T09:13:54.707Z,41.30
2022-12-18T09:16:27.408Z,41.90
2022-12-18T09:19:01.138Z,41.20
2022-12-18T09:21:30.888Z,40.80
2022-12-18T09:24:00.481Z,41.60
2022-12-18T09:26:31.910Z,42.10
2022-12-18T09:29:01.169Z,42.40
2022-12-18T09:31:29.377Z,42.70
2022-12-18T09:34:00.845Z,42.80
2022-12-18T09:36:28.865Z,42.50
2022-12-18T09:38:56.826Z,42.10
2022-12-18T09:41:48.203Z,42.70
2022-12-18T09:44:22.068Z,43.30
2022-12-18T09:46:57.540Z,43.10
2022-12-18T09:49:28.609Z,42.40
2022-12-18T09:51:59.494Z,42.20
2022-12-18T09:54:32.577Z,41.40
2022-12-18T09:57:00.701Z,41.10
2022-12-18T09:59:37.210Z,41.30
2022-12-18T10:02:17.195Z,40.40
2022-12-18T10:04:45.665Z,40.20
2022-12-18T10:07:21.184Z,38.80
2022-12-18T10:10:01.030Z,38.20
2022-12-18T10:12:37.029Z,38.20
2022-12-18T10:15:12.705Z,38.80
2022-12-18T10:17:47.938Z,38.20
2022-12-18T10:20:22.871Z,38.10
2022-12-18T10:23:01.778Z,37.20
2022-12-18T10:25:34.822Z,37.70
2022-12-18T10:28:14.068Z,38.00
2022-12-18T10:30:44.568Z,38.00
2022-12-18T10:33:14.201Z,37.70
2022-12-18T10:35:44.584Z,37.90
2022-12-18T10:38:24.934Z,37.90
2022-12-18T10:40:55.780Z,37.50
2022-12-18T10:43:26.413Z,37.20
2022-12-18T10:46:13.771Z,37.70
2022-12-18T10:48:50.523Z,39.00
2022-12-18T10:51:23.640Z,38.50
2022-12-18T10:53:57.634Z,39.10
2022-12-18T10:56:29.063Z,38.60
2022-12-18T10:59:02.564Z,38.20
2022-12-18T11:01:48.993Z,38.80
2022-12-18T11:04:20.803Z,38.80
2022-12-18T11:06:57.660Z,39.10
2022-12-18T11:09:27.798Z,39.00
2022-12-18T11:11:57.777Z,39.80
2022-12-18T11:14:28.068Z,38.20
2022-12-18T11:19:53.703Z,38.10
2022-12-18T11:22:28.551Z,38.70
2022-12-18T11:27:54.562Z,36.40
2022-12-18T11:30:27.443Z,35.70
2022-12-18T11:33:00.510Z,35.60
2022-12-18T11:35:40.379Z,35.60
2022-12-18T11:38:16.487Z,35.10
2022-12-18T11:40:47.857Z,34.80
2022-12-18T11:43:20.765Z,34.80
2022-12-18T11:45:55.059Z,35.50
2022-12-18T11:48:28.889Z,35.80
2022-12-18T11:50:58.878Z,35.90
2022-12-18T11:53:28.610Z,36.20
2022-12-18T11:56:07.990Z,37.20
2022-12-18T11:58:48.910Z,37.30
2022-12-18T12:01:35.588Z,37.00
2022-12-18T12:04:34.525Z,37.20
2022-12-18T12:07:16.013Z,36.40
2022-12-18T12:09:52.570Z,36.60
2022-12-18T12:12:48.705Z,35.70
2022-12-18T12:15:30.497Z,35.80
2022-12-18T12:18:10.921Z,36.00
2022-12-18T12:20:49.757Z,35.40
2022-12-18T12:23:27.885Z,35.30
2022-12-18T12:26:01.775Z,35.80
2022-12-18T12:28:47.935Z,36.80
2022-12-18T12:31:26.338Z,37.20
2022-12-18T12:34:03.389Z,37.70
2022-12-18T12:36:44.339Z,36.80
2022-12-18T12:39:16.420Z,36.50
2022-12-18T12:42:04.573Z,36.30
2022-12-18T12:44:36.640Z,36.20
2022-12-18T12:47:14.474Z,36.40
2022-12-18T12:49:48.419Z,35.60
2022-12-18T12:52:28.275Z,35.00
2022-12-18T12:54:57.417Z,34.60
2022-12-18T12:57:32.740Z,34.20
2022-12-18T13:00:05.737Z,34.50
2022-12-18T13:02:39.322Z,34.90
2022-12-18T13:05:19.164Z,34.80
2022-12-18T13:07:53.209Z,35.10
2022-12-18T13:10:28.690Z,34.30
2022-12-18T13:12:57.942Z,33.80
2022-12-18T13:15:31.339Z,33.80
2022-12-18T13:18:22.144Z,34.20
2022-12-18T13:23:42.711Z,33.40
2022-12-18T13:26:36.858Z,33.60
2022-12-18T13:29:07.342Z,33.60
2022-12-18T13:32:03.220Z,33.60
2022-12-18T13:34:32.915Z,33.70
2022-12-18T13:37:34.975Z,33.40
2022-12-18T13:40:04.948Z,33.00
2022-12-18T13:43:00.407Z,33.10
2022-12-18T13:45:49.341Z,33.10
2022-12-18T13:48:26.264Z,32.70
2022-12-18T13:50:59.630Z,32.90
2022-12-18T13:53:31.700Z,33.10
2022-12-18T13:56:05.370Z,33.10
2022-12-18T13:58:33.912Z,33.20
2022-12-18T14:01:04.023Z,33.60
2022-12-18T14:03:32.427Z,33.50
2022-12-18T14:06:10.901Z,33.30
2022-12-18T14:08:42.257Z,33.10
2022-12-18T14:11:21.918Z,33.40
2022-12-18T14:13:51.775Z,34.10
2022-12-18T14:16:20.164Z,34.30
2022-12-18T14:18:55.382Z,35.00
2022-12-18T14:21:30.498Z,34.80
2022-12-18T14:24:15.790Z,34.70
2022-12-18T14:26:47.408Z,34.10
2022-12-18T14:29:28.273Z,34.80
2022-12-18T14:32:16.880Z,34.80
2022-12-18T14:34:46.377Z,34.80
2022-12-18T14:37:15.935Z,35.00
2022-12-18T14:39:55.206Z,35.10
2022-12-18T14:42:28.785Z,34.90
2022-12-18T14:45:41.670Z,34.90
2022-12-18T14:48:22.788Z,35.90
2022-12-18T14:51:00.439Z,35.10
2022-12-18T14:53:35.781Z,35.30
2022-12-18T14:56:05.224Z,35.80
2022-12-18T14:58:34.567Z,35.40
2022-12-18T15:01:02.574Z,36.20
2022-12-18T15:03:30.888Z,36.30
2022-12-18T15:06:18.057Z,36.20
2022-12-18T15:08:46.227Z,36.50
2022-12-18T15:11:34.769Z,36.70
2022-12-18T15:14:24.965Z,37.50
2022-12-18T15:16:57.897Z,36.80
2022-12-18T15:19:35.486Z,36.50
2022-12-18T15:22:06.833Z,36.20
2022-12-18T15:24:35.258Z,36.10
2022-12-18T15:27:03.669Z,36.00
2022-12-18T15:29:32.962Z,36.50
2022-12-18T15:32:05.509Z,36.40
2022-12-18T15:34:34.932Z,36.00
2022-12-18T15:37:02.936Z,36.00
2022-12-18T15:39:31.007Z,35.10
2022-12-18T15:42:16.377Z,35.20
2022-12-18T15:44:46.082Z,35.50
2022-12-18T15:47:15.083Z,35.80
2022-12-18T15:49:43.091Z,35.70
2022-12-18T15:52:26.677Z,37.00
2022-12-18T15:55:17.389Z,37.10
2022-12-18T15:57:45.843Z,36.90
2022-12-18T16:00:16.133Z,37.30
2022-12-18T16:02:44.247Z,37.10
2022-12-18T16:05:17.938Z,37.00
2022-12-18T16:07:46.589Z,36.30
2022-12-18T16:10:15.223Z,36.60
2022-12-18T16:12:45.783Z,35.30
2022-12-18T16:15:22.437Z,35.60
2022-12-18T16:17:53.459Z,36.20
2022-12-18T16:20:23.855Z,36.30
2022-12-18T16:22:52.062Z,36.70
2022-12-18T16:25:26.852Z,36.80
2022-12-18T16:27:59.203Z,37.20
2022-12-18T16:30:36.244Z,36.60
2022-12-18T16:33:07.633Z,35.90
2022-12-18T16:35:38.034Z,36.00
2022-12-18T16:38:06.203Z,36.00
2022-12-18T16:40:54.586Z,35.40
2022-12-18T16:43:22.546Z,36.10
2022-12-18T16:45:52.272Z,36.00
2022-12-18T16:48:20.226Z,35.20
2022-12-18T16:50:48.175Z,35.00
2022-12-18T16:53:16.111Z,34.80
2022-12-18T16:55:44.071Z,36.00
2022-12-18T16:58:12.362Z,36.10
2022-12-18T17:00:41.145Z,36.70
2022-12-18T17:03:10.540Z,37.50
2022-12-18T17:05:38.724Z,39.50
2022-12-18T17:08:09.181Z,38.40
2022-12-18T17:10:37.445Z,37.80
2022-12-18T17:13:07.637Z,37.70
2022-12-18T17:15:36.340Z,37.10
2022-12-18T17:18:04.408Z,37.00
2022-12-18T17:20:33.741Z,36.40
2022-12-18T17:23:01.719Z,36.40
2022-12-18T17:25:30.911Z,36.50
2022-12-18T17:27:58.892Z,37.50
2022-12-18T17:30:26.869Z,37.70
2022-12-18T17:32:55.072Z,38.20
2022-12-18T17:35:23.032Z,38.80
2022-12-18T17:37:52.357Z,38.20
2022-12-18T17:40:20.364Z,37.90
2022-12-18T17:42:48.326Z,37.60
2022-12-18T17:45:16.334Z,37.70
2022-12-18T17:47:44.307Z,38.10
2022-12-18T17:50:12.369Z,38.00
2022-12-18T17:52:40.343Z,38.60
2022-12-18T17:55:10.886Z,38.80
2022-12-18T17:57:38.906Z,39.00
2022-12-18T18:00:10.311Z,39.10
2022-12-18T18:02:40.617Z,39.00
2022-12-18T18:05:09.910Z,38.50
2022-12-18T18:07:39.350Z,38.30
2022-12-18T18:10:10.035Z,38.00
2022-12-18T18:12:55.425Z,37.80
2022-12-18T18:15:23.696Z,37.60
2022-12-18T18:17:51.976Z,37.20
2022-12-18T18:20:22.703Z,36.90
2022-12-18T18:22:50.891Z,36.70
2022-12-18T18:25:20.302Z,36.90
2022-12-18T18:27:48.434Z,37.40
2022-12-18T18:30:16.635Z,36.80
2022-12-18T18:32:44.621Z,36.70
2022-12-18T18:35:44.736Z,36.70
2022-12-18T18:38:06.482Z,36.70
2022-12-18T18:40:35.840Z,36.80
2022-12-18T18:43:03.888Z,36.70
2022-12-18T18:45:33.585Z,36.50
2022-12-18T18:48:01.785Z,36.20
2022-12-18T18:50:29.758Z,36.20
2022-12-18T18:52:57.729Z,36.10
2022-12-18T18:55:26.033Z,36.20
2022-12-18T18:57:55.353Z,36.20
2022-12-18T19:00:23.305Z,36.20
2022-12-18T19:02:53.086Z,36.30
2022-12-18T19:05:24.364Z,36.30
2022-12-18T19:07:56.672Z,36.20
2022-12-18T19:10:25.959Z,36.40
2022-12-18T19:13:13.078Z,36.60
2022-12-18T19:15:41.109Z,36.60
2022-12-18T19:18:09.085Z,36.30
2022-12-18T19:20:38.357Z,36.50
2022-12-18T19:23:06.668Z,35.40
2022-12-18T19:25:41.672Z,35.60
2022-12-18T19:28:21.983Z,36.10
2022-12-18T19:30:57.301Z,35.20
2022-12-18T19:33:44.605Z,35.40
2022-12-18T19:36:15.823Z,34.90
2022-12-18T19:38:44.125Z,35.80
2022-12-18T19:41:14.931Z,35.70
2022-12-18T19:43:44.863Z,36.00
2022-12-18T19:46:15.438Z,36.60
2022-12-18T19:48:45.029Z,36.90
2022-12-18T19:51:17.111Z,37.30
2022-12-18T19:53:46.974Z,37.90
2022-12-18T19:56:16.645Z,37.60
2022-12-18T19:58:46.175Z,37.50
2022-12-18T20:01:16.422Z,36.60
2022-12-18T20:03:47.077Z,36.60
2022-12-18T20:06:24.681Z,37.20
2022-12-18T20:08:53.996Z,37.40
2022-12-18T20:11:26.438Z,37.50
2022-12-18T20:13:55.712Z,36.90
2022-12-18T20:16:24.916Z,36.30
2022-12-18T20:18:53.570Z,36.10
2022-12-18T20:21:21.701Z,36.10
2022-12-18T20:23:52.103Z,35.50
2022-12-18T20:26:20.414Z,36.10
2022-12-18T20:28:48.410Z,35.80
2022-12-18T20:31:17.855Z,35.80
2022-12-18T20:33:46.103Z,35.80
2022-12-18T20:36:20.115Z,36.10
2022-12-18T20:38:51.853Z,37.00
2022-12-18T20:41:24.266Z,36.70
2022-12-18T20:43:52.597Z,36.70
2022-12-18T20:46:21.916Z,36.10
2022-12-18T20:48:49.949Z,36.80
2022-12-18T20:51:20.415Z,37.70
2022-12-18T20:53:52.637Z,38.30
2022-12-18T20:56:23.877Z,38.50
2022-12-18T20:58:54.836Z,38.70
2022-12-18T21:01:25.411Z,39.10
2022-12-18T21:03:53.752Z,39.80
2022-12-18T21:06:23.513Z,40.10
2022-12-18T21:08:54.447Z,40.50
2022-12-18T21:11:46.230Z,40.50
2022-12-18T21:14:16.801Z,40.20
2022-12-18T21:16:47.258Z,41.10
2022-12-18T21:19:17.739Z,41.80
2022-12-18T21:21:46.274Z,41.10
2022-12-18T21:24:15.225Z,41.70
2022-12-18T21:26:45.858Z,41.50
2022-12-18T21:29:16.103Z,41.60
2022-12-18T21:31:47.389Z,40.90
2022-12-18T21:34:18.126Z,41.80
2022-12-18T21:36:46.572Z,42.30
2022-12-18T21:39:16.657Z,43.50
2022-12-18T21:42:02.423Z,43.20
2022-12-18T21:44:31.586Z,43.40
2022-12-18T21:47:22.290Z,44.10
2022-12-18T21:49:51.949Z,44.60
2022-12-18T21:52:20.118Z,45.10
2022-12-18T21:54:55.308Z,45.40
2022-12-18T21:57:23.329Z,44.70
2022-12-18T21:59:52.216Z,44.50
2022-12-18T22:02:23.331Z,44.60
2022-12-18T22:04:52.890Z,44.30
2022-12-18T22:07:21.216Z,44.10
2022-12-18T22:09:50.749Z,43.10
2022-12-18T22:12:35.170Z,42.50
2022-12-18T22:15:05.317Z,42.00
2022-12-18T22:17:34.659Z,41.70
2022-12-18T22:20:04.939Z,42.20
2022-12-18T22:22:32.925Z,41.90
2022-12-18T22:25:00.881Z,41.80
2022-12-18T22:27:31.920Z,41.50
2022-12-18T22:30:04.949Z,41.60
2022-12-18T22:32:35.677Z,41.40
2022-12-18T22:35:15.427Z,40.90
2022-12-18T22:37:45.170Z,40.70
2022-12-18T22:40:23.856Z,40.60
2022-12-18T22:42:52.731Z,41.20
2022-12-18T22:45:20.863Z,41.00
2022-12-18T22:47:50.225Z,40.60
2022-12-18T22:50:18.250Z,40.40
2022-12-18T22:52:46.331Z,39.80
2022-12-18T22:55:14.265Z,39.70
2022-12-18T22:57:48.750Z,39.40
2022-12-18T23:00:20.783Z,39.30
2022-12-18T23:03:00.017Z,39.60
2022-12-18T23:05:30.159Z,39.80
2022-12-18T23:07:59.184Z,39.70
2022-12-18T23:10:27.726Z,39.10
2022-12-18T23:12:55.710Z,38.60
2022-12-18T23:15:27.599Z,38.20
2022-12-18T23:17:59.090Z,37.90
2022-12-18T23:20:28.320Z,37.20
2022-12-18T23:22:56.313Z,37.10
2022-12-18T23:25:25.391Z,36.40
2022-12-18T23:27:53.387Z,36.60
2022-12-18T23:30:21.390Z,36.60
2022-12-18T23:32:49.464Z,36.40
2022-12-18T23:35:18.897Z,36.80
2022-12-18T23:38:03.663Z,37.00
2022-12-18T23:40:31.652Z,36.70
2022-12-18T23:43:00.405Z,36.50
2022-12-18T23:45:29.995Z,36.20
2022-12-18T23:47:57.945Z,36.10
2022-12-18T23:50:29.335Z,35.90
2022-12-18T23:53:02.087Z,35.60
2022-12-18T23:55:33.966Z,35.10
2022-12-18T23:58:01.927Z,35.80
